createdAt,value
2017-05-26T00:00:02.923Z,13.53
2017-05-26T00:10:02.639Z,13.44
2017-05-26T00:20:02.881Z,13.46
2017-05-26T00:30:02.347Z,13.49
2017-05-26T00:40:02.335Z,13.4
2017-05-26T00:50:02.795Z,13.38
2017-05-26T01:00:02.310Z,13.41
2017-05-26T01:10:02.323Z,13.37
2017-05-26T01:20:02.643Z,13.32
2017-05-26T01:30:03.099Z,13.29
2017-05-26T01:40:02.690Z,13.18
2017-05-26T01:50:02.718Z,13.11
2017-05-26T02:00:02.187Z,13.08
2017-05-26T02:10:02.222Z,13.04
2017-05-26T02:20:02.817Z,13.03
2017-05-26T02:30:02.296Z,13.02
2017-05-26T02:40:02.620Z,12.99
2017-05-26T02:50:02.844Z,13
2017-05-26T03:00:02.323Z,12.99
2017-05-26T03:10:02.222Z,13
2017-05-26T03:20:03.028Z,13.06
2017-05-26T03:30:02.485Z,13.12
2017-05-26T03:40:02.350Z,13.11
2017-05-26T03:50:02.644Z,13.12
2017-05-26T04:00:03.053Z,13.08
2017-05-26T04:10:03.059Z,13.11
2017-05-26T04:20:02.656Z,13.06
2017-05-26T04:30:02.159Z,13.12
2017-05-26T04:40:02.630Z,13.15
2017-05-26T04:50:02.257Z,13.18
2017-05-26T05:00:02.732Z,13.21
2017-05-26T05:10:03.019Z,13.33
2017-05-26T05:20:02.295Z,13.44
2017-05-26T05:30:02.749Z,13.51
2017-05-26T05:40:02.206Z,13.76
2017-05-26T05:50:02.864Z,13.77
2017-05-26T06:00:02.372Z,13.92
2017-05-26T06:10:02.487Z,14.05
2017-05-26T06:20:02.486Z,14.06
2017-05-26T06:30:02.957Z,14.05
2017-05-26T06:40:02.159Z,14.18
2017-05-26T06:50:03.129Z,14.23
2017-05-26T07:00:02.531Z,14.3
2017-05-26T07:10:02.381Z,14.43
2017-05-26T07:20:02.979Z,14.8
2017-05-26T07:30:02.409Z,15.09
2017-05-26T07:40:03.094Z,15.41
2017-05-26T07:50:03.006Z,15.65
2017-05-26T08:00:02.468Z,15.86
2017-05-26T08:10:02.277Z,17.19
2017-05-26T08:20:02.178Z,18.56
2017-05-26T08:30:02.695Z,19.24
2017-05-26T08:40:02.775Z,19.67
2017-05-26T08:50:02.488Z,20.12
2017-05-26T09:00:02.945Z,20.53
2017-05-26T09:10:02.623Z,20.77
2017-05-26T09:20:02.302Z,20.96
2017-05-26T09:30:02.782Z,21.22
2017-05-26T09:40:02.150Z,21.22
2017-05-26T09:50:02.322Z,21.75
2017-05-26T10:00:02.891Z,22.02
2017-05-26T10:10:02.964Z,21.75
2017-05-26T10:20:02.849Z,21.79
2017-05-26T10:30:02.338Z,21.4
2017-05-26T10:40:02.482Z,21.55
2017-05-26T10:50:02.237Z,21.91
2017-05-26T11:00:02.694Z,22.39
2017-05-26T11:10:02.654Z,22.68
2017-05-26T11:20:03.108Z,22.9
2017-05-26T11:30:02.594Z,23.24
2017-05-26T11:40:03.072Z,23.6
2017-05-26T11:50:02.158Z,23.99
2017-05-26T12:00:02.573Z,23.91
2017-05-26T12:10:02.877Z,23.85
2017-05-26T12:20:02.328Z,24.29
2017-05-26T12:30:02.804Z,24.43
2017-05-26T12:40:02.323Z,24.7
2017-05-26T12:50:02.258Z,24.83
2017-05-26T13:00:02.743Z,24.94
2017-05-26T13:10:02.184Z,24.99
2017-05-26T13:20:02.490Z,24.82
2017-05-26T13:30:02.929Z,24.87
2017-05-26T13:40:02.463Z,24.9
2017-05-26T13:50:02.548Z,25.03
2017-05-26T14:00:03.039Z,25.17
2017-05-26T14:10:02.680Z,25.18
2017-05-26T14:20:02.596Z,25.24
2017-05-26T14:30:03.068Z,25.44
2017-05-26T14:40:02.526Z,25.54
2017-05-26T14:50:02.212Z,25.67
2017-05-26T15:00:02.677Z,25.78
2017-05-26T15:10:02.356Z,25.81
2017-05-26T15:20:02.831Z,25.71
2017-05-26T15:30:02.303Z,25.63
2017-05-26T15:40:02.931Z,25.82
2017-05-26T15:50:02.505Z,25.83
2017-05-26T16:00:02.971Z,25.87
2017-05-26T16:10:02.328Z,25.79
2017-05-26T16:20:02.868Z,25.78
2017-05-26T16:30:02.326Z,25.76
2017-05-26T16:40:02.853Z,25.68
2017-05-26T16:50:02.227Z,25.49
2017-05-26T17:00:02.743Z,25.34
2017-05-26T17:10:02.477Z,25.15
2017-05-26T17:20:02.768Z,25.1
2017-05-26T17:30:02.199Z,25.05
2017-05-26T17:40:02.735Z,24.82
2017-05-26T17:50:02.683Z,24.62
2017-05-26T18:00:02.204Z,24.44
2017-05-26T18:10:02.204Z,24.24
2017-05-26T18:20:02.672Z,23.98
2017-05-26T18:30:03.140Z,23.72
2017-05-26T18:40:02.645Z,23.4
2017-05-26T18:50:02.429Z,23.07
2017-05-26T19:00:02.920Z,22.68
2017-05-26T19:10:02.227Z,22.27
2017-05-26T19:20:03.013Z,21.9
2017-05-26T19:30:02.491Z,21.51
2017-05-26T19:40:02.501Z,21.15
2017-05-26T19:50:02.669Z,20.84
2017-05-26T20:00:02.130Z,20.51
2017-05-26T20:10:02.338Z,20.18
2017-05-26T20:20:02.391Z,19.81
2017-05-26T20:30:02.866Z,19.44
2017-05-26T20:40:02.271Z,19.12
2017-05-26T20:50:03.061Z,18.86
2017-05-26T21:00:02.590Z,18.7
2017-05-26T21:10:02.524Z,18.53
2017-05-26T21:20:02.189Z,18.37
2017-05-26T21:30:02.629Z,18.18
2017-05-26T21:40:02.203Z,18
2017-05-26T21:50:02.162Z,17.92
2017-05-26T22:00:02.701Z,17.9
2017-05-26T22:10:03.039Z,17.9
2017-05-26T22:20:03.066Z,17.8
2017-05-26T22:30:02.496Z,17.66
2017-05-26T22:40:02.722Z,17.48
2017-05-26T22:50:02.215Z,17.29
2017-05-26T23:00:02.683Z,17.03
2017-05-26T23:10:02.210Z,16.79
2017-05-26T23:20:02.316Z,16.61
2017-05-26T23:30:02.768Z,16.45
2017-05-26T23:40:02.508Z,16.26
2017-05-26T23:50:02.971Z,16.11
